Hlavní strana
METAR-TAF:

METAR-TAF

Letiště :

Letiště Vratislav

Vratislav, Polsko

zeměpisná šířka: 51-06N, zeměpisná délka: 016-53E, výška: 120 m

Aktuální stav počasí

Zpráva byla vytvořena před 20 minutami, v 09:00 UTC
vítr z různých směrů 2 kt
Teplota 7°C
Vlhkost vzduchu 57%
Tlak 1029 hPa
Viditelnost 10 km a více
Žádná oblačnost pod 1500 m, nevyskytují se cumulonimby.

METAR: EPWR 160900Z VRB02KT CAVOK 07/M01 Q1029

Čas: 10:20 (09:20 UTC)

Předpověď počasí

Zpráva byla vytvořena před 50 minutami, v 08:30 UTC
Předpověď platná od 16 v 09 UTC do 17 v 09 UTC
vítr z různých směrů 2 kt
Viditelnost 10 km a více
Žádná oblačnost pod 1500 m, nevyskytují se cumulonimby.

TAF: EPWR 160830Z 1609/1709 VRB02KT CAVOK

Stav a předpovědi počasí z více než 4 000 letišť (zprávy METAR a TAF).

Červené a žluté tečky na mapě představují dostupné meteorologické stanice.

Když kurzor umístíte na tečku, zobrazí se název stanice.

Pak kliknutím zobrazíte stav a předpověď počasí.

Chcete-li změnit mapu, kliknutím na zelené tlačítko se znaménkem +mapu přiblížíte, kliknutím na zelené tlačítko se znaménkem – mapu oddálíte a kliknutím na zelené šipky přejdete na sousední mapy.


METAR-TAF: